createdAt,value
2022-09-15T00:00:26.091Z,84.03
2022-09-15T00:01:29.388Z,84.49
2022-09-15T00:02:32.463Z,84.52
2022-09-15T00:03:39.321Z,84.82
2022-09-15T00:04:42.256Z,84.90
2022-09-15T00:05:45.806Z,85.24
2022-09-15T00:06:48.664Z,85.45
2022-09-15T00:07:51.862Z,85.83
2022-09-15T00:08:55.235Z,86.52
2022-09-15T00:09:58.182Z,86.54
2022-09-15T00:11:19.744Z,87.07
2022-09-15T00:12:22.975Z,87.45
2022-09-15T00:13:26.663Z,87.90
2022-09-15T00:14:29.845Z,88.31
2022-09-15T00:15:32.796Z,88.37
2022-09-15T00:16:36.361Z,88.55
2022-09-15T00:17:43.390Z,88.92
2022-09-15T00:18:47.273Z,88.85
2022-09-15T00:19:50.369Z,88.86
2022-09-15T00:20:53.392Z,89.30
2022-09-15T00:21:56.529Z,89.46
2022-09-15T00:22:59.676Z,89.63
2022-09-15T00:24:03.047Z,89.72
2022-09-15T00:25:06.547Z,89.84
2022-09-15T00:26:15.315Z,89.95
2022-09-15T00:27:18.074Z,90.36
2022-09-15T00:28:23.145Z,90.47
2022-09-15T00:29:26.068Z,90.70
2022-09-15T00:30:29.009Z,90.85
2022-09-15T00:31:33.616Z,91.21
2022-09-15T00:32:38.268Z,91.11
2022-09-15T00:33:48.151Z,90.60
2022-09-15T00:34:51.652Z,90.50
2022-09-15T00:35:54.885Z,90.10
2022-09-15T00:36:57.838Z,90.00
2022-09-15T00:38:00.880Z,89.79
2022-09-15T00:39:06.276Z,89.83
2022-09-15T00:40:09.664Z,89.97
2022-09-15T00:41:19.176Z,90.37
2022-09-15T00:42:24.306Z,90.68
2022-09-15T00:43:50.649Z,90.93
2022-09-15T00:45:02.317Z,91.37
2022-09-15T00:46:10.322Z,91.56
2022-09-15T00:47:19.675Z,91.59
2022-09-15T00:48:27.190Z,91.79
2022-09-15T00:49:34.608Z,92.18
2022-09-15T00:50:42.181Z,92.59
2022-09-15T00:51:55.057Z,92.97
2022-09-15T00:53:02.041Z,93.28
2022-09-15T00:54:17.811Z,93.31
2022-09-15T00:55:53.177Z,93.50
2022-09-15T00:57:01.555Z,93.62
2022-09-15T00:58:08.240Z,93.38
2022-09-15T01:00:40.268Z,93.25
2022-09-15T01:01:45.027Z,93.37
2022-09-15T01:02:49.511Z,93.70
2022-09-15T01:03:54.165Z,94.00
2022-09-15T01:05:00.293Z,94.10
2022-09-15T01:06:15.829Z,94.20
2022-09-15T01:07:26.582Z,94.39
2022-09-15T01:08:36.727Z,94.54
2022-09-15T01:10:00.429Z,94.68
2022-09-15T01:11:03.369Z,94.83
2022-09-15T01:12:06.766Z,94.90
2022-09-15T01:13:13.006Z,94.79
2022-09-15T01:14:16.205Z,94.72
2022-09-15T01:15:21.242Z,94.79
2022-09-15T01:18:27.330Z,94.96
2022-09-15T01:19:51.720Z,95.13
2022-09-15T01:21:00.996Z,95.03
2022-09-15T01:22:41.041Z,94.72
2022-09-15T01:24:02.433Z,94.72
2022-09-15T01:25:39.278Z,94.98
2022-09-15T01:27:37.778Z,94.89
2022-09-15T01:28:44.774Z,94.91
2022-09-15T01:29:59.951Z,95.07
2022-09-15T01:31:30.086Z,95.15
2022-09-15T01:33:20.202Z,95.24
2022-09-15T01:34:26.825Z,95.17
2022-09-15T01:35:44.780Z,95.34
2022-09-15T01:36:59.717Z,95.27
2022-09-15T01:38:12.099Z,95.33
2022-09-15T01:39:30.535Z,95.26
2022-09-15T01:40:45.540Z,95.09
2022-09-15T01:41:55.326Z,94.97
2022-09-15T01:43:02.448Z,94.92
2022-09-15T01:44:20.305Z,94.98
2022-09-15T01:45:30.814Z,94.99
2022-09-15T01:46:40.625Z,94.94
2022-09-15T01:47:48.461Z,94.84
2022-09-15T01:48:54.134Z,94.83
2022-09-15T01:50:02.992Z,95.00
2022-09-15T01:51:07.342Z,95.26
2022-09-15T01:52:10.614Z,95.26
2022-09-15T01:53:18.409Z,95.45
2022-09-15T01:54:27.803Z,95.77
2022-09-15T01:55:38.995Z,95.94
2022-09-15T01:56:42.431Z,96.13
2022-09-15T01:57:45.710Z,95.80
2022-09-15T01:58:51.330Z,95.84
2022-09-15T01:59:56.533Z,95.98
2022-09-15T02:01:06.436Z,96.15
2022-09-15T02:02:16.059Z,96.50
2022-09-15T02:04:02.847Z,96.87
2022-09-15T02:05:16.859Z,97.13
2022-09-15T02:06:36.434Z,97.24
2022-09-15T02:07:49.241Z,96.93
2022-09-15T02:09:07.706Z,96.96
2022-09-15T02:10:20.432Z,96.83
2022-09-15T02:11:28.332Z,96.63
2022-09-15T02:12:50.997Z,96.66
2022-09-15T02:14:36.446Z,96.70
2022-09-15T02:15:52.081Z,96.68
2022-09-15T02:16:55.312Z,96.88
2022-09-15T02:17:59.390Z,96.97
2022-09-15T02:19:17.933Z,96.91
2022-09-15T02:20:50.157Z,96.82
2022-09-15T02:22:28.044Z,97.23
2022-09-15T02:23:37.902Z,97.40
2022-09-15T02:24:50.286Z,97.13
2022-09-15T02:26:06.749Z,97.09
2022-09-15T02:27:16.313Z,97.38
2022-09-15T02:28:26.370Z,97.44
2022-09-15T02:29:34.015Z,97.37
2022-09-15T02:30:42.164Z,97.14
2022-09-15T02:31:46.805Z,96.93
2022-09-15T02:32:56.413Z,97.03
2022-09-15T02:34:06.046Z,97.14
2022-09-15T02:35:10.166Z,97.37
2022-09-15T02:36:15.924Z,97.31
2022-09-15T02:37:23.102Z,97.17
2022-09-15T02:38:29.824Z,96.77
2022-09-15T02:39:37.348Z,96.95
2022-09-15T02:40:43.478Z,97.23
2022-09-15T02:41:49.017Z,97.25
2022-09-15T02:42:56.038Z,97.08
2022-09-15T02:43:58.916Z,97.15
2022-09-15T02:45:02.492Z,97.33
2022-09-15T02:46:10.380Z,97.51
2022-09-15T02:47:13.704Z,97.53
2022-09-15T02:48:16.824Z,97.44
2022-09-15T02:49:20.354Z,97.52
2022-09-15T02:50:28.014Z,97.59
2022-09-15T02:51:31.446Z,97.55
2022-09-15T02:52:38.384Z,97.46
2022-09-15T02:53:43.213Z,97.19
2022-09-15T02:54:46.471Z,97.20
2022-09-15T02:55:49.738Z,97.17
2022-09-15T02:56:52.672Z,97.21
2022-09-15T02:57:57.496Z,97.30
2022-09-15T02:59:01.784Z,97.18
2022-09-15T03:00:17.045Z,97.25
2022-09-15T03:01:20.089Z,97.37
2022-09-15T03:02:23.725Z,97.06
2022-09-15T03:03:26.840Z,96.96
2022-09-15T03:04:31.350Z,97.04
2022-09-15T03:05:37.629Z,97.23
2022-09-15T03:06:42.233Z,96.82
2022-09-15T03:07:45.696Z,96.78
2022-09-15T03:08:52.460Z,96.86
2022-09-15T03:09:56.564Z,96.87
2022-09-15T03:10:59.475Z,96.82
2022-09-15T03:12:04.352Z,96.96
2022-09-15T03:13:09.129Z,97.04
2022-09-15T03:14:12.202Z,97.13
2022-09-15T03:15:19.738Z,96.99
2022-09-15T03:16:23.082Z,97.04
2022-09-15T03:17:25.951Z,97.14
2022-09-15T03:18:28.964Z,97.20
2022-09-15T03:19:32.454Z,97.14
2022-09-15T03:20:35.257Z,97.21
2022-09-15T03:21:38.818Z,97.18
2022-09-15T03:22:45.547Z,97.15
2022-09-15T03:23:48.663Z,97.23
2022-09-15T03:24:52.051Z,97.31
2022-09-15T03:25:54.751Z,96.99
2022-09-15T03:26:57.685Z,96.77
2022-09-15T03:28:00.499Z,96.94
2022-09-15T03:29:03.826Z,97.03
2022-09-15T03:30:09.384Z,97.08
2022-09-15T03:31:13.831Z,97.10
2022-09-15T03:33:26.083Z,96.97
2022-09-15T03:34:29.316Z,96.96
2022-09-15T03:35:32.130Z,96.99
2022-09-15T03:36:35.175Z,97.09
2022-09-15T03:37:42.238Z,97.10
2022-09-15T03:38:45.423Z,97.10
2022-09-15T03:39:49.216Z,97.15
2022-09-15T03:41:03.631Z,97.13
2022-09-15T03:42:06.706Z,97.03
2022-09-15T03:43:18.012Z,97.09
2022-09-15T03:44:21.950Z,97.06
2022-09-15T03:45:25.353Z,97.04
2022-09-15T03:46:28.833Z,97.07
2022-09-15T03:47:32.855Z,97.00
2022-09-15T03:48:36.445Z,97.04
2022-09-15T03:49:39.393Z,97.24
2022-09-15T03:50:42.515Z,97.46
2022-09-15T03:51:45.630Z,97.22
2022-09-15T03:52:48.759Z,97.14
2022-09-15T03:53:52.473Z,97.23
2022-09-15T03:54:55.833Z,97.27
2022-09-15T03:56:11.765Z,97.22
2022-09-15T03:57:14.998Z,97.28
2022-09-15T03:58:19.110Z,97.27
2022-09-15T03:59:23.459Z,96.76
2022-09-15T04:00:26.771Z,96.63
2022-09-15T04:01:30.735Z,96.76
2022-09-15T04:02:33.993Z,96.63
2022-09-15T04:03:43.257Z,96.00
2022-09-15T04:04:49.525Z,95.70
2022-09-15T04:05:53.215Z,95.04
2022-09-15T04:06:56.304Z,94.49
2022-09-15T04:07:59.260Z,94.31
2022-09-15T04:09:02.587Z,94.12
2022-09-15T04:10:10.236Z,94.03
2022-09-15T04:11:14.231Z,93.82
2022-09-15T04:12:17.592Z,93.34
2022-09-15T04:13:28.613Z,93.39
2022-09-15T04:14:32.287Z,93.60
2022-09-15T04:15:35.103Z,93.58
2022-09-15T04:16:38.189Z,93.74
2022-09-15T04:17:41.328Z,93.92
2022-09-15T04:18:45.109Z,94.02
2022-09-15T04:19:47.999Z,94.04
2022-09-15T04:20:51.283Z,94.19
2022-09-15T04:21:54.428Z,94.35
2022-09-15T04:22:58.700Z,94.37
2022-09-15T04:24:05.337Z,94.42
2022-09-15T04:25:09.497Z,94.57
2022-09-15T04:26:24.736Z,94.64
2022-09-15T04:27:30.281Z,94.61
2022-09-15T04:28:37.532Z,94.66
2022-09-15T04:29:40.610Z,94.62
2022-09-15T04:30:44.172Z,94.62
2022-09-15T04:31:47.334Z,94.64
2022-09-15T04:32:51.865Z,94.70
2022-09-15T04:33:55.896Z,94.72
2022-09-15T04:34:59.012Z,94.71
2022-09-15T04:36:06.831Z,94.84
2022-09-15T04:37:14.255Z,94.90
2022-09-15T04:38:17.402Z,94.88
2022-09-15T04:39:20.430Z,94.83
2022-09-15T04:40:23.599Z,94.93
2022-09-15T04:41:27.616Z,95.00
2022-09-15T04:42:31.653Z,95.12
2022-09-15T04:43:35.579Z,94.96
2022-09-15T04:44:38.805Z,94.64
2022-09-15T04:45:41.716Z,94.28
2022-09-15T04:46:44.825Z,94.47
2022-09-15T04:47:48.742Z,94.73
2022-09-15T04:48:52.058Z,94.82
2022-09-15T04:49:55.021Z,94.88
2022-09-15T04:51:07.162Z,94.94
2022-09-15T04:52:10.181Z,94.99
2022-09-15T04:53:13.793Z,94.92
2022-09-15T04:54:16.780Z,94.96
2022-09-15T04:55:20.087Z,95.02
2022-09-15T04:56:25.958Z,95.04
2022-09-15T04:57:29.193Z,95.10
2022-09-15T04:58:39.986Z,95.10
2022-09-15T04:59:43.014Z,95.11
2022-09-15T05:00:46.036Z,95.26
2022-09-15T05:01:49.426Z,95.49
2022-09-15T05:02:52.372Z,95.50
2022-09-15T05:03:56.060Z,95.44
2022-09-15T05:04:59.384Z,95.41
2022-09-15T05:06:02.312Z,95.43
2022-09-15T05:07:05.327Z,95.49
2022-09-15T05:08:08.783Z,95.46
2022-09-15T05:09:15.061Z,95.44
2022-09-15T05:10:19.365Z,95.28
2022-09-15T05:11:23.133Z,95.35
2022-09-15T05:12:26.136Z,95.50
2022-09-15T05:13:29.759Z,95.57
2022-09-15T05:14:32.793Z,95.56
2022-09-15T05:15:35.968Z,95.67
2022-09-15T05:16:40.450Z,95.72
2022-09-15T05:17:43.294Z,95.67
2022-09-15T05:18:48.010Z,95.76
2022-09-15T05:19:51.112Z,95.82
2022-09-15T05:20:59.410Z,95.95
2022-09-15T05:22:06.289Z,96.01
2022-09-15T05:23:10.733Z,96.00
2022-09-15T05:24:13.785Z,96.03
2022-09-15T05:25:16.841Z,96.13
2022-09-15T05:26:23.613Z,96.25
2022-09-15T05:27:26.326Z,96.16
2022-09-15T05:28:29.492Z,96.14
2022-09-15T05:29:32.350Z,96.22
2022-09-15T05:30:43.603Z,96.31
2022-09-15T05:31:47.036Z,96.01
2022-09-15T05:32:50.239Z,95.95
2022-09-15T05:33:54.499Z,96.02
2022-09-15T05:34:58.222Z,96.28
2022-09-15T05:36:01.339Z,96.49
2022-09-15T05:37:05.507Z,96.05
2022-09-15T05:38:08.341Z,95.80
2022-09-15T05:39:11.573Z,96.26
2022-09-15T05:40:15.460Z,96.55
2022-09-15T05:41:19.264Z,96.53
2022-09-15T05:42:22.157Z,96.42
2022-09-15T05:43:25.416Z,96.45
2022-09-15T05:44:28.459Z,96.57
2022-09-15T05:45:31.431Z,96.66
2022-09-15T05:46:35.012Z,96.75
2022-09-15T05:47:38.360Z,96.84
2022-09-15T05:48:41.682Z,96.74
2022-09-15T05:49:44.661Z,96.46
2022-09-15T05:50:51.703Z,96.55
2022-09-15T05:51:54.500Z,96.65
2022-09-15T05:52:57.812Z,96.75
2022-09-15T05:54:00.851Z,96.92
2022-09-15T05:55:03.803Z,96.70
2022-09-15T05:56:17.557Z,96.32
2022-09-15T05:57:20.800Z,96.58
2022-09-15T05:58:24.997Z,96.75
2022-09-15T05:59:28.787Z,96.87
2022-09-15T06:00:32.024Z,96.85
2022-09-15T06:01:35.682Z,96.69
2022-09-15T06:02:39.054Z,96.59
2022-09-15T06:03:42.574Z,96.55
2022-09-15T06:04:49.428Z,96.62
2022-09-15T06:05:59.817Z,96.62
2022-09-15T06:07:03.164Z,96.53
2022-09-15T06:08:07.132Z,96.33
2022-09-15T06:09:10.046Z,96.33
2022-09-15T06:10:13.154Z,96.23
2022-09-15T06:11:18.807Z,96.18
2022-09-15T06:12:22.182Z,96.07
2022-09-15T06:13:25.242Z,95.72
2022-09-15T06:14:28.472Z,95.51
2022-09-15T06:15:32.188Z,95.19
2022-09-15T06:16:35.928Z,95.06
2022-09-15T06:17:39.203Z,94.99
2022-09-15T06:18:42.835Z,94.98
2022-09-15T06:19:46.023Z,95.15
2022-09-15T06:20:49.012Z,95.35
2022-09-15T06:21:55.476Z,95.48
2022-09-15T06:22:59.297Z,95.52
2022-09-15T06:24:05.358Z,95.58
2022-09-15T06:25:08.898Z,95.62
2022-09-15T06:26:17.198Z,95.56
2022-09-15T06:27:20.814Z,95.49
2022-09-15T06:28:24.703Z,95.28
2022-09-15T06:29:29.291Z,95.23
2022-09-15T06:30:32.866Z,95.17
2022-09-15T06:31:36.298Z,94.49
2022-09-15T06:32:39.453Z,94.06
2022-09-15T06:35:08.444Z,93.88
2022-09-15T06:36:13.365Z,93.66
2022-09-15T06:37:16.637Z,93.55
2022-09-15T06:38:19.887Z,93.41
2022-09-15T06:39:23.262Z,92.27
2022-09-15T06:40:26.348Z,92.35
2022-09-15T06:41:47.089Z,92.85
2022-09-15T06:42:56.029Z,92.59
2022-09-15T06:43:59.855Z,92.84
2022-09-15T06:45:04.702Z,92.88
2022-09-15T06:46:11.005Z,92.45
2022-09-15T06:47:15.656Z,92.25
2022-09-15T06:48:24.825Z,92.59
2022-09-15T06:49:32.711Z,92.68
2022-09-15T06:50:35.520Z,92.57
2022-09-15T06:51:44.302Z,92.97
2022-09-15T06:52:47.206Z,93.33
2022-09-15T06:53:50.558Z,93.40
2022-09-15T06:54:57.335Z,93.61
2022-09-15T06:56:09.195Z,93.45
2022-09-15T06:57:12.505Z,93.49
2022-09-15T06:58:15.280Z,93.62
2022-09-15T06:59:18.495Z,93.76
2022-09-15T07:00:21.845Z,93.87
2022-09-15T07:01:27.309Z,93.90
2022-09-15T07:02:30.284Z,94.07
2022-09-15T07:03:33.513Z,94.00
2022-09-15T07:04:39.723Z,94.03
2022-09-15T07:05:44.492Z,94.20
2022-09-15T07:06:48.194Z,94.21
2022-09-15T07:07:51.261Z,94.18
2022-09-15T07:08:54.193Z,94.15
2022-09-15T07:09:57.115Z,94.17
2022-09-15T07:11:01.076Z,94.37
2022-09-15T07:12:04.642Z,94.55
2022-09-15T07:13:07.841Z,94.57
2022-09-15T07:14:14.485Z,94.54
2022-09-15T07:15:17.566Z,94.59
2022-09-15T07:16:21.847Z,94.40
2022-09-15T07:17:26.675Z,94.26
2022-09-15T07:18:31.245Z,94.52
2022-09-15T07:19:34.298Z,94.68
2022-09-15T07:20:42.557Z,94.65
2022-09-15T07:21:45.360Z,94.64
2022-09-15T07:22:51.424Z,94.72
2022-09-15T07:23:57.889Z,94.21
2022-09-15T07:25:00.651Z,93.85
2022-09-15T07:26:24.035Z,93.54
2022-09-15T07:27:31.897Z,93.58
2022-09-15T07:28:36.515Z,93.18
2022-09-15T07:29:39.738Z,93.07
2022-09-15T07:30:43.723Z,92.94
2022-09-15T07:31:47.091Z,93.00
2022-09-15T07:32:50.130Z,92.77
2022-09-15T07:33:53.495Z,92.52
2022-09-15T07:34:58.467Z,92.08
2022-09-15T07:36:04.024Z,91.37
2022-09-15T07:37:07.675Z,91.24
2022-09-15T07:38:11.002Z,91.41
2022-09-15T07:39:14.016Z,91.50
2022-09-15T07:40:17.296Z,90.96
2022-09-15T07:41:23.148Z,90.90
2022-09-15T07:42:26.083Z,91.01
2022-09-15T07:43:34.281Z,90.95
2022-09-15T07:44:37.242Z,90.88
2022-09-15T07:45:40.828Z,90.80
2022-09-15T07:46:43.658Z,90.79
2022-09-15T07:47:46.791Z,90.71
2022-09-15T07:48:52.293Z,90.42
2022-09-15T07:49:58.486Z,90.04
2022-09-15T07:51:01.557Z,89.21
2022-09-15T07:52:04.464Z,88.62
2022-09-15T07:53:07.855Z,88.47
2022-09-15T07:54:11.174Z,88.01
2022-09-15T07:55:14.258Z,87.76
2022-09-15T07:56:18.763Z,87.52
2022-09-15T07:57:21.992Z,87.76
2022-09-15T07:58:25.661Z,87.71
2022-09-15T07:59:28.747Z,87.16
2022-09-15T08:00:32.077Z,87.23
2022-09-15T08:01:35.367Z,84.96
2022-09-15T08:02:38.155Z,82.72
2022-09-15T08:03:42.989Z,81.82
2022-09-15T08:04:45.759Z,81.91
2022-09-15T08:05:48.735Z,81.13
2022-09-15T08:06:52.963Z,80.02
2022-09-15T08:07:56.399Z,78.59
2022-09-15T08:09:00.979Z,78.44
2022-09-15T08:10:04.316Z,79.02
2022-09-15T08:11:09.476Z,78.65
2022-09-15T08:12:12.494Z,79.02
2022-09-15T08:13:15.320Z,79.65
2022-09-15T08:14:18.407Z,79.74
2022-09-15T08:15:21.531Z,79.68
2022-09-15T08:16:24.987Z,78.98
2022-09-15T08:17:31.448Z,77.44
2022-09-15T08:18:35.097Z,77.22
2022-09-15T08:19:38.044Z,77.86
2022-09-15T08:20:44.953Z,77.14
2022-09-15T08:21:48.009Z,77.17
2022-09-15T08:22:51.450Z,76.71
2022-09-15T08:24:01.573Z,74.37
2022-09-15T08:25:04.666Z,74.23
2022-09-15T08:26:13.860Z,74.01
2022-09-15T08:27:17.699Z,73.61
2022-09-15T08:28:21.683Z,73.08
2022-09-15T08:29:25.242Z,73.25
2022-09-15T08:30:28.277Z,73.24
2022-09-15T08:31:31.199Z,73.78
2022-09-15T08:32:34.345Z,73.48
2022-09-15T08:33:41.828Z,72.73
2022-09-15T08:34:47.713Z,72.53
2022-09-15T08:35:50.659Z,72.24
2022-09-15T08:36:53.513Z,70.63
2022-09-15T08:37:56.452Z,71.00
2022-09-15T08:38:59.998Z,71.58
2022-09-15T08:40:05.436Z,70.66
2022-09-15T08:41:24.179Z,69.69
2022-09-15T08:42:29.319Z,69.33
2022-09-15T08:43:51.654Z,68.49
2022-09-15T08:45:08.385Z,66.43
2022-09-15T08:46:18.466Z,66.57
2022-09-15T08:47:28.660Z,66.83
2022-09-15T08:48:40.435Z,64.30
2022-09-15T08:50:01.146Z,62.97
2022-09-15T08:51:12.110Z,65.06
2022-09-15T08:52:32.173Z,65.67
2022-09-15T08:53:43.135Z,66.58
2022-09-15T08:54:46.133Z,63.58
2022-09-15T08:55:53.021Z,62.54
2022-09-15T08:56:57.776Z,62.86
2022-09-15T08:58:00.636Z,62.29
2022-09-15T08:59:03.715Z,62.57
2022-09-15T09:00:13.843Z,63.50
2022-09-15T09:01:31.885Z,62.71
2022-09-15T09:03:01.838Z,59.92
2022-09-15T09:04:24.503Z,59.86
2022-09-15T09:06:00.742Z,59.30
2022-09-15T09:07:19.023Z,57.86
2022-09-15T09:09:03.022Z,57.53
2022-09-15T09:10:38.716Z,57.92
2022-09-15T09:12:09.306Z,54.80
2022-09-15T09:13:36.388Z,56.03
2022-09-15T09:14:45.055Z,54.46
2022-09-15T09:16:10.708Z,54.78
2022-09-15T09:17:34.988Z,55.61
2022-09-15T09:18:59.798Z,55.28
2022-09-15T09:20:39.620Z,53.81
2022-09-15T09:21:51.741Z,54.32
2022-09-15T09:22:58.306Z,54.97
2022-09-15T09:24:13.423Z,54.35
2022-09-15T09:25:27.211Z,54.27
2022-09-15T09:26:33.910Z,54.07
2022-09-15T09:27:36.829Z,54.37
2022-09-15T09:28:46.627Z,54.93
2022-09-15T09:29:55.074Z,54.98
2022-09-15T09:31:08.544Z,55.69
2022-09-15T09:32:24.803Z,55.32
2022-09-15T09:33:41.791Z,55.67
2022-09-15T09:35:14.687Z,55.39
2022-09-15T09:36:18.078Z,54.66
2022-09-15T09:37:21.255Z,55.42
2022-09-15T09:38:31.547Z,54.94
2022-09-15T09:39:34.762Z,55.40
2022-09-15T09:40:41.314Z,55.53
2022-09-15T09:41:45.234Z,55.77
2022-09-15T09:42:49.130Z,56.47
2022-09-15T09:43:55.370Z,56.83
2022-09-15T09:44:58.632Z,56.13
2022-09-15T09:46:02.728Z,56.65
2022-09-15T09:47:05.595Z,56.90
2022-09-15T09:48:35.229Z,57.04
2022-09-15T09:49:48.308Z,56.57
2022-09-15T09:50:51.671Z,57.30
2022-09-15T09:52:02.472Z,56.39
2022-09-15T09:53:33.860Z,56.76
2022-09-15T09:54:38.523Z,56.86
2022-09-15T09:55:41.907Z,55.36
2022-09-15T09:56:45.716Z,55.58
2022-09-15T09:57:48.533Z,54.93
2022-09-15T09:58:52.454Z,55.16
2022-09-15T09:59:57.318Z,55.52
2022-09-15T10:01:10.730Z,56.25
2022-09-15T10:02:19.542Z,56.15
2022-09-15T10:03:32.091Z,54.81
2022-09-15T10:04:35.828Z,54.61
2022-09-15T10:05:38.997Z,55.09
2022-09-15T10:06:42.754Z,55.67
2022-09-15T10:07:46.600Z,55.58
2022-09-15T10:09:05.443Z,55.50
2022-09-15T10:10:23.255Z,55.73
2022-09-15T10:11:52.087Z,55.50
2022-09-15T10:12:59.914Z,56.05
2022-09-15T10:14:02.977Z,55.24
2022-09-15T10:15:19.769Z,55.23
2022-09-15T10:16:23.175Z,55.17
2022-09-15T10:17:41.615Z,55.75
2022-09-15T10:18:45.161Z,56.29
2022-09-15T10:19:54.440Z,56.37
2022-09-15T10:20:57.856Z,56.29
2022-09-15T10:22:03.065Z,55.56
2022-09-15T10:23:24.776Z,55.12
2022-09-15T10:24:27.827Z,54.80
2022-09-15T10:25:49.654Z,54.86
2022-09-15T10:27:27.919Z,54.87
2022-09-15T10:28:30.897Z,54.27
2022-09-15T10:29:42.786Z,53.39
2022-09-15T10:31:07.091Z,52.96
2022-09-15T10:32:18.353Z,52.59
2022-09-15T10:33:29.670Z,53.39
2022-09-15T10:34:32.732Z,53.66
2022-09-15T10:35:44.404Z,53.66
2022-09-15T10:36:47.915Z,53.97
2022-09-15T10:38:03.776Z,54.12
2022-09-15T10:39:13.079Z,54.46
2022-09-15T10:40:40.602Z,54.61
2022-09-15T10:42:04.697Z,53.77
2022-09-15T10:43:19.719Z,53.49
2022-09-15T10:44:44.726Z,53.74
2022-09-15T10:46:10.996Z,53.48
2022-09-15T10:47:16.970Z,53.28
2022-09-15T10:48:41.240Z,53.32
2022-09-15T10:50:18.784Z,53.56
2022-09-15T10:51:31.730Z,54.55
2022-09-15T10:52:49.643Z,53.88
2022-09-15T10:54:11.084Z,54.07
2022-09-15T10:55:52.940Z,53.41
2022-09-15T10:58:49.222Z,53.30
2022-09-15T11:00:02.340Z,53.68
2022-09-15T11:01:30.318Z,53.50
2022-09-15T11:02:59.815Z,53.14
2022-09-15T11:04:15.580Z,53.69
2022-09-15T11:05:47.036Z,53.22
2022-09-15T11:07:08.379Z,52.83
2022-09-15T11:08:35.964Z,52.35
2022-09-15T11:09:54.030Z,52.07
2022-09-15T11:11:16.666Z,52.41
2022-09-15T11:12:47.436Z,53.14
2022-09-15T11:14:21.836Z,53.57
2022-09-15T11:15:41.771Z,53.08
2022-09-15T11:17:06.206Z,53.46
2022-09-15T11:18:36.830Z,53.38
2022-09-15T11:20:04.841Z,53.90
2022-09-15T11:21:20.022Z,53.74
2022-09-15T11:22:36.455Z,53.74
2022-09-15T11:24:29.595Z,54.26
2022-09-15T11:25:36.784Z,54.98
2022-09-15T11:26:42.961Z,55.66
2022-09-15T11:28:17.479Z,55.61
2022-09-15T11:29:28.264Z,56.14
2022-09-15T11:30:47.656Z,58.04
2022-09-15T11:33:23.053Z,60.92
2022-09-15T11:34:44.106Z,61.53
2022-09-15T11:36:11.151Z,62.69
2022-09-15T11:37:44.829Z,63.58
2022-09-15T11:38:57.863Z,64.03
2022-09-15T11:40:14.938Z,64.90
2022-09-15T11:41:40.937Z,65.28
2022-09-15T11:42:56.480Z,65.10
2022-09-15T11:44:41.971Z,64.72
2022-09-15T11:45:51.095Z,64.85
2022-09-15T11:47:15.808Z,65.38
2022-09-15T11:48:28.113Z,65.83
2022-09-15T11:49:57.241Z,65.60
2022-09-15T11:51:03.090Z,65.80
2022-09-15T11:52:48.212Z,65.70
2022-09-15T11:54:05.521Z,64.90
2022-09-15T11:55:14.064Z,64.26
2022-09-15T11:56:44.369Z,63.94
2022-09-15T11:58:22.364Z,64.05
2022-09-15T11:59:29.467Z,64.35
2022-09-15T12:00:35.418Z,64.64
2022-09-15T12:02:17.268Z,63.75
2022-09-15T12:03:29.193Z,63.82
2022-09-15T12:04:37.472Z,64.30
2022-09-15T12:05:49.342Z,65.02
2022-09-15T12:07:14.653Z,65.26
2022-09-15T12:08:39.610Z,65.62
2022-09-15T12:09:43.045Z,65.88
2022-09-15T12:10:52.663Z,66.32
2022-09-15T12:12:08.658Z,66.74
2022-09-15T12:13:18.534Z,67.12
2022-09-15T12:14:36.092Z,67.04
2022-09-15T12:15:38.945Z,67.13
2022-09-15T12:16:42.484Z,67.62
2022-09-15T12:17:52.597Z,67.70
2022-09-15T12:19:12.083Z,68.12
2022-09-15T12:20:33.601Z,69.20
2022-09-15T12:21:54.373Z,70.28
2022-09-15T12:23:32.985Z,70.41
2022-09-15T12:24:46.218Z,71.50
2022-09-15T12:26:14.920Z,72.17
2022-09-15T12:27:20.588Z,73.08
2022-09-15T12:28:24.132Z,73.69
2022-09-15T12:29:27.023Z,73.57
2022-09-15T12:30:41.762Z,74.21
2022-09-15T12:31:47.236Z,74.33
2022-09-15T12:32:50.265Z,75.08
2022-09-15T12:33:57.587Z,75.71
2022-09-15T12:35:18.599Z,76.62
2022-09-15T12:36:41.499Z,76.87
2022-09-15T12:37:57.540Z,78.51
2022-09-15T12:39:25.731Z,79.94
2022-09-15T12:40:41.880Z,80.62
2022-09-15T12:41:56.077Z,81.72
2022-09-15T12:43:07.483Z,82.27
2022-09-15T12:44:35.091Z,83.21
2022-09-15T12:45:39.522Z,84.13
2022-09-15T12:46:51.571Z,84.38
2022-09-15T12:48:21.510Z,85.00
2022-09-15T12:49:31.377Z,85.29
2022-09-15T12:50:41.263Z,86.39
2022-09-15T12:51:50.036Z,87.55
2022-09-15T12:53:14.694Z,88.20
2022-09-15T12:54:29.881Z,88.96
2022-09-15T12:55:36.815Z,89.41
2022-09-15T12:56:39.987Z,88.50
2022-09-15T12:57:42.885Z,88.13
2022-09-15T12:58:48.495Z,88.61
2022-09-15T13:00:27.653Z,78.83
2022-09-15T13:01:45.737Z,79.51
2022-09-15T13:02:51.188Z,78.19
2022-09-15T13:03:55.444Z,78.19
2022-09-15T13:04:58.489Z,78.16
2022-09-15T13:06:10.519Z,80.38
2022-09-15T13:07:16.283Z,81.58
2022-09-15T13:08:22.994Z,82.76
2022-09-15T13:09:28.447Z,83.66
2022-09-15T13:10:36.041Z,84.71
2022-09-15T13:11:42.701Z,85.70
2022-09-15T13:12:54.692Z,84.69
2022-09-15T13:14:00.200Z,86.51
2022-09-15T13:15:13.444Z,88.01
2022-09-15T13:17:41.254Z,87.76
2022-09-15T13:18:46.330Z,88.48
2022-09-15T13:19:53.354Z,88.98
2022-09-15T13:21:04.958Z,89.50
2022-09-15T13:22:27.552Z,89.98
2022-09-15T13:23:37.054Z,90.90
2022-09-15T13:25:02.331Z,92.26
2022-09-15T13:26:09.856Z,92.50
2022-09-15T13:27:15.399Z,92.83
2022-09-15T13:28:20.402Z,93.27
2022-09-15T13:29:25.937Z,93.52
2022-09-15T13:30:41.164Z,93.92
2022-09-15T13:32:10.241Z,94.71
2022-09-15T13:35:41.376Z,94.84
2022-09-15T13:38:46.731Z,94.13
2022-09-15T13:40:27.587Z,95.41
2022-09-15T13:42:01.558Z,95.60
2022-09-15T13:43:12.928Z,94.95
2022-09-15T13:44:37.153Z,94.97
2022-09-15T13:45:53.151Z,95.10
2022-09-15T13:47:04.644Z,95.02
2022-09-15T13:48:47.959Z,95.40
2022-09-15T13:49:59.877Z,95.88
2022-09-15T13:51:13.360Z,95.86
2022-09-15T13:52:33.273Z,96.18
2022-09-15T13:53:52.688Z,96.49
2022-09-15T13:55:10.348Z,96.64
2022-09-15T13:56:32.986Z,96.97
2022-09-15T13:59:13.378Z,97.22
2022-09-15T14:00:23.218Z,97.22
2022-09-15T14:01:29.720Z,97.39
2022-09-15T14:02:32.679Z,97.55
2022-09-15T14:03:39.519Z,97.76
2022-09-15T14:04:42.261Z,97.91
2022-09-15T14:05:45.740Z,97.92
2022-09-15T14:06:52.078Z,97.97
2022-09-15T14:08:04.479Z,98.02
2022-09-15T14:09:26.983Z,98.19
2022-09-15T14:10:44.397Z,98.28
2022-09-15T14:11:53.798Z,98.73
2022-09-15T14:13:00.536Z,99.05
2022-09-15T14:14:10.604Z,98.97
2022-09-15T14:15:21.804Z,99.05
2022-09-15T14:16:36.356Z,98.99
2022-09-15T14:17:45.659Z,99.17
2022-09-15T14:18:48.510Z,99.59
2022-09-15T14:19:56.920Z,99.68
2022-09-15T14:21:05.094Z,99.71
2022-09-15T14:22:30.866Z,99.65
2022-09-15T14:23:33.896Z,99.25
2022-09-15T14:24:40.609Z,99.11
2022-09-15T14:25:46.213Z,99.29
2022-09-15T14:26:49.168Z,98.88
2022-09-15T14:27:55.547Z,98.91
2022-09-15T14:29:04.618Z,98.94
2022-09-15T14:30:17.454Z,99.29
2022-09-15T14:31:43.960Z,99.68
2022-09-15T14:32:52.536Z,99.91
2022-09-15T14:33:55.668Z,99.80
2022-09-15T14:35:03.522Z,99.59
2022-09-15T14:36:23.180Z,99.91
2022-09-15T14:37:28.981Z,100.00
2022-09-15T14:38:34.061Z,100.00
2022-09-15T14:39:37.933Z,100.00
2022-09-15T14:40:41.601Z,99.80
2022-09-15T14:41:45.073Z,99.66
2022-09-15T14:42:47.875Z,99.81
2022-09-15T14:43:50.817Z,100.00
2022-09-15T14:46:18.718Z,100.00
2022-09-15T14:47:25.852Z,100.00
2022-09-15T14:48:30.330Z,100.00
2022-09-15T14:49:37.799Z,100.00
2022-09-15T14:50:41.512Z,100.00
2022-09-15T14:51:46.482Z,100.00
2022-09-15T14:53:21.202Z,100.00
2022-09-15T14:54:29.577Z,100.00
2022-09-15T14:55:38.329Z,100.00
2022-09-15T14:56:43.429Z,100.00
2022-09-15T14:58:01.792Z,100.00
2022-09-15T14:59:27.887Z,99.90
2022-09-15T15:00:37.782Z,99.63
2022-09-15T15:01:46.610Z,99.32
2022-09-15T15:02:59.589Z,99.10
2022-09-15T15:04:31.542Z,99.10
2022-09-15T15:05:41.587Z,99.05
2022-09-15T15:07:16.097Z,99.43
2022-09-15T15:08:47.374Z,99.51
2022-09-15T15:10:02.870Z,99.91
2022-09-15T15:11:08.749Z,100.00
2022-09-15T15:12:35.055Z,100.00
2022-09-15T15:13:44.460Z,100.00